Time;durP1;ratioP1;P1;durP2;ratioP2;P2;SDS_P1;SDS_P2;PMS_P1;PMS_P2;Temp;Humidity;BMP_temperature;BMP_pressure;BME280_temperature;BME280_humidity;BME280_pressure;Samples;Min_cycle;Max_cycle;Signal;HPM_P1;HPM_P2
2022/06/07 00:01:16;;;;;;;5.03;2.50;;;17.30;99.90;;;;;;5095226;28;20617;-74
2022/06/07 00:03:43;;;;;;;2.63;2.43;;;17.30;99.90;;;;;;5094667;28;20687;-74
2022/06/07 00:06:09;;;;;;;4.30;2.60;;;17.30;99.90;;;;;;5096160;28;20605;-74
2022/06/07 00:08:36;;;;;;;2.80;2.40;;;17.10;99.90;;;;;;5095172;28;21105;-74
2022/06/07 00:11:02;;;;;;;2.67;2.47;;;17.00;99.90;;;;;;5094353;28;20614;-74
2022/06/07 00:13:29;;;;;;;7.90;2.70;;;16.90;99.90;;;;;;5095149;28;20700;-74
2022/06/07 00:15:55;;;;;;;2.47;2.37;;;16.90;99.90;;;;;;5095066;28;20629;-74
2022/06/07 00:18:22;;;;;;;5.73;2.87;;;16.80;99.90;;;;;;5095745;28;20672;-74
2022/06/07 00:20:48;;;;;;;2.73;2.53;;;16.80;99.90;;;;;;5094100;28;20625;-74
2022/06/07 00:23:18;;;;;;;2.57;2.37;;;16.80;99.90;;;;;;5095520;28;20605;-74
2022/06/07 00:25:49;;;;;;;2.50;2.30;;;16.80;99.90;;;;;;5095195;28;20616;-74
2022/06/07 00:28:15;;;;;;;1.83;1.73;;;16.70;99.90;;;;;;5093766;28;20694;-73
2022/06/07 00:30:42;;;;;;;2.83;1.90;;;16.60;99.90;;;;;;5095822;28;20650;-73
2022/06/07 00:33:09;;;;;;;2.47;2.27;;;16.50;99.90;;;;;;5094028;28;20610;-73
2022/06/07 00:35:36;;;;;;;2.70;2.07;;;16.60;99.90;;;;;;5094434;28;21179;-74
2022/06/07 00:38:03;;;;;;;1.70;1.60;;;16.50;99.90;;;;;;5076302;28;21054;-74
2022/06/07 00:40:29;;;;;;;2.00;1.90;;;16.30;99.90;;;;;;5094875;28;20613;-74
2022/06/07 00:42:56;;;;;;;2.10;1.90;;;16.30;99.90;;;;;;5094049;28;20620;-74
2022/06/07 00:45:23;;;;;;;3.43;1.93;;;16.20;99.90;;;;;;5094973;28;21004;-74
2022/06/07 00:47:50;;;;;;;1.83;1.73;;;16.20;99.90;;;;;;5092813;28;20660;-74
2022/06/07 00:50:37;;;;;;;8.43;2.50;;;16.20;99.90;;;;;;5094816;28;20614;-74
2022/06/07 00:53:05;;;;;;;1.93;1.83;;;16.20;99.90;;;;;;5093735;28;20581;-73
2022/06/07 00:55:32;;;;;;;2.50;2.20;;;16.10;99.90;;;;;;5095158;28;20619;-73
2022/06/07 00:57:58;;;;;;;2.67;2.00;;;16.00;99.90;;;;;;5095145;28;20681;-73
2022/06/07 01:00:25;;;;;;;3.50;2.00;;;16.00;99.90;;;;;;5095237;28;20711;-77
2022/06/07 01:02:52;;;;;;;6.93;2.37;;;16.00;99.90;;;;;;5092697;28;20629;-77
2022/06/07 01:05:19;;;;;;;6.90;2.40;;;16.00;99.90;;;;;;5094355;28;20580;-77
2022/06/07 01:10:45;;;;;;;2.10;2.00;;;15.90;99.90;;;;;;5095643;28;20588;-76
2022/06/07 01:13:15;;;;;;;4.50;2.40;;;15.90;99.90;;;;;;5094954;28;20582;-77
2022/06/07 01:15:45;;;;;;;2.77;2.57;;;15.90;99.90;;;;;;5094943;28;20626;-76
2022/06/07 01:18:13;;;;;;;5.70;2.07;;;15.90;99.90;;;;;;5094171;28;20652;-77
2022/06/07 01:20:40;;;;;;;3.10;2.80;;;15.80;99.90;;;;;;5094982;28;20617;-77
2022/06/07 01:23:07;;;;;;;2.23;2.13;;;15.90;99.90;;;;;;5099293;28;20597;-77
2022/06/07 01:25:35;;;;;;;3.47;3.17;;;15.90;99.90;;;;;;5102978;28;20612;-77
2022/06/07 01:28:02;;;;;;;2.60;2.40;;;15.80;99.90;;;;;;5102728;28;20605;-77
2022/06/07 01:30:28;;;;;;;4.47;3.40;;;15.80;99.90;;;;;;5102800;28;20621;-77
2022/06/07 01:32:55;;;;;;;2.53;2.43;;;15.80;99.90;;;;;;5102392;28;20620;-77
2022/06/07 01:35:21;;;;;;;3.33;3.03;;;15.70;99.90;;;;;;5102233;28;21077;-77
2022/06/07 01:37:48;;;;;;;2.80;2.60;;;15.70;99.90;;;;;;5102537;28;20639;-77
2022/06/07 01:42:59;;;;;;;3.23;2.87;;;15.70;99.90;;;;;;5101613;28;20554;-77
2022/06/07 01:45:25;;;;;;;2.57;2.37;;;15.70;99.90;;;;;;5102346;28;20968;-77
2022/06/07 01:47:52;;;;;;;2.70;2.50;;;15.70;99.90;;;;;;5100942;28;20733;-77
2022/06/07 01:50:18;;;;;;;2.57;2.40;;;15.70;99.90;;;;;;5101995;28;20624;-77
2022/06/07 01:52:45;;;;;;;3.83;2.80;;;15.70;99.90;;;;;;5101117;28;20605;-77
2022/06/07 01:55:11;;;;;;;5.13;3.03;;;15.70;99.90;;;;;;5102065;28;20620;-78
2022/06/07 01:57:38;;;;;;;2.73;2.63;;;15.60;99.90;;;;;;5100771;28;20624;-77
2022/06/07 02:00:05;;;;;;;2.97;2.80;;;15.70;99.90;;;;;;5102074;28;20605;-77
2022/06/07 02:02:32;;;;;;;3.03;2.83;;;15.70;99.90;;;;;;5101058;28;20610;-77
2022/06/07 02:04:58;;;;;;;3.90;3.27;;;15.70;99.90;;;;;;5084211;28;20953;-77
2022/06/07 02:07:25;;;;;;;5.87;3.33;;;15.70;99.90;;;;;;5102123;28;20932;-77
2022/06/07 02:09:52;;;;;;;4.93;3.30;;;15.70;99.90;;;;;;5101206;28;20619;-77
2022/06/07 02:12:18;;;;;;;3.00;2.63;;;15.60;99.90;;;;;;5101709;28;20609;-77
2022/06/07 02:14:45;;;;;;;3.30;3.00;;;15.60;99.90;;;;;;5100403;28;20950;-77
2022/06/07 02:17:11;;;;;;;3.63;3.40;;;15.60;99.90;;;;;;5101393;28;20616;-78
2022/06/07 02:19:38;;;;;;;4.00;3.17;;;15.50;99.90;;;;;;5101176;28;20684;-77
2022/06/07 02:22:05;;;;;;;3.30;3.00;;;15.60;99.90;;;;;;5101756;28;20608;-77
2022/06/07 02:24:31;;;;;;;4.07;3.37;;;15.50;99.90;;;;;;5101253;28;20635;-77
2022/06/07 02:27:19;;;;;;;2.90;2.80;;;15.50;99.90;;;;;;5099970;28;20632;-77
2022/06/07 02:29:48;;;;;;;3.67;3.33;;;15.50;99.90;;;;;;5100985;28;20660;-77
2022/06/07 02:32:21;;;;;;;3.40;3.23;;;15.50;99.90;;;;;;5100978;28;20677;-77
2022/06/07 02:34:53;;;;;;;5.63;3.17;;;15.40;99.90;;;;;;5097047;28;20585;-77
2022/06/07 02:37:20;;;;;;;5.37;3.60;;;15.40;99.90;;;;;;5097340;28;20629;-77
2022/06/07 02:39:47;;;;;;;5.20;3.47;;;15.40;99.90;;;;;;5097727;28;20997;-77
2022/06/07 02:42:16;;;;;;;7.33;3.73;;;15.40;99.90;;;;;;5098175;28;20593;-77
2022/06/07 02:44:43;;;;;;;4.53;4.17;;;15.40;99.90;;;;;;5096624;28;20625;-77
2022/06/07 02:47:09;;;;;;;4.27;3.40;;;15.40;99.90;;;;;;5098302;28;20629;-77
2022/06/07 02:49:37;;;;;;;5.90;3.70;;;15.40;99.90;;;;;;5096615;28;20659;-78
2022/06/07 02:52:03;;;;;;;5.63;3.80;;;15.40;99.90;;;;;;5098323;28;20704;-77
2022/06/07 02:54:30;;;;;;;5.73;3.63;;;15.40;99.90;;;;;;5096976;28;21175;-77
2022/06/07 02:56:56;;;;;;;3.97;3.70;;;15.50;99.90;;;;;;5096199;28;20666;-78
2022/06/07 02:59:23;;;;;;;6.43;4.10;;;15.50;99.90;;;;;;5097407;28;20628;-77
2022/06/07 03:01:50;;;;;;;4.73;4.10;;;15.40;99.90;;;;;;5097827;28;20666;-77
2022/06/07 03:04:16;;;;;;;4.07;3.70;;;15.30;99.90;;;;;;5097397;28;20604;-77
2022/06/07 03:06:43;;;;;;;9.77;4.57;;;15.40;99.90;;;;;;5097487;28;20605;-77
2022/06/07 03:09:09;;;;;;;4.77;4.20;;;15.30;99.90;;;;;;5097462;28;20597;-77
2022/06/07 03:11:35;;;;;;;3.97;3.70;;;15.30;99.90;;;;;;5096392;28;21148;-77
2022/06/07 03:14:02;;;;;;;5.20;4.27;;;15.40;99.90;;;;;;5096257;28;20624;-78
2022/06/07 03:16:28;;;;;;;5.17;4.60;;;15.40;99.90;;;;;;5097151;28;21136;-77
2022/06/07 03:18:55;;;;;;;3.90;3.57;;;15.30;99.90;;;;;;5095502;28;20661;-77
2022/06/07 03:21:21;;;;;;;4.43;4.13;;;15.30;99.90;;;;;;5095641;28;20613;-77
2022/06/07 03:23:48;;;;;;;4.13;3.83;;;15.30;99.90;;;;;;5097331;28;20616;-77
2022/06/07 03:26:15;;;;;;;5.30;3.53;;;15.40;99.90;;;;;;5095818;28;20959;-77
2022/06/07 03:28:41;;;;;;;3.50;3.20;;;15.40;99.90;;;;;;5097767;28;20612;-77
2022/06/07 03:31:16;;;;;;;6.00;3.90;;;15.40;99.90;;;;;;5097122;28;20617;-77
2022/06/07 03:33:44;;;;;;;3.70;3.40;;;15.30;99.90;;;;;;5096810;28;20739;-77
2022/06/07 03:36:15;;;;;;;9.10;4.40;;;15.30;99.90;;;;;;5096742;28;20602;-77
2022/06/07 03:38:42;;;;;;;4.87;3.23;;;15.30;99.90;;;;;;5095602;28;21222;-77
2022/06/07 03:41:14;;;;;;;3.60;3.30;;;15.30;99.90;;;;;;5094940;28;20609;-79
2022/06/07 03:43:40;;;;;;;4.23;2.93;;;15.20;99.90;;;;;;5097076;28;20928;-77
2022/06/07 03:46:19;;;;;;;7.23;2.90;;;15.20;99.90;;;;;;5096046;28;20613;-77
2022/06/07 03:48:46;;;;;;;3.50;3.10;;;15.20;99.90;;;;;;5095475;28;20653;-77
2022/06/07 03:51:15;;;;;;;3.20;2.57;;;15.20;99.90;;;;;;5097201;28;20628;-77
2022/06/07 03:53:43;;;;;;;2.93;2.73;;;15.30;99.90;;;;;;5095636;28;20610;-77
2022/06/07 03:56:10;;;;;;;3.30;3.10;;;15.30;99.90;;;;;;5096520;28;20629;-77
2022/06/07 03:58:38;;;;;;;2.90;2.70;;;15.40;99.90;;;;;;5096956;28;20620;-77
2022/06/07 04:01:08;;;;;;;5.20;2.70;;;15.40;99.90;;;;;;5094451;28;20629;-77
2022/06/07 04:03:34;;;;;;;4.83;3.03;;;15.40;99.90;;;;;;5094799;28;20614;-77
2022/06/07 04:06:02;;;;;;;2.80;2.60;;;15.40;99.90;;;;;;5096758;28;20610;-77
2022/06/07 04:08:30;;;;;;;3.10;2.90;;;15.40;99.90;;;;;;5095981;28;20782;-78
2022/06/07 04:10:59;;;;;;;3.50;3.07;;;15.50;99.90;;;;;;5095568;28;20678;-77
2022/06/07 04:13:28;;;;;;;8.03;3.30;;;15.50;99.90;;;;;;5096267;28;20614;-77
2022/06/07 04:15:55;;;;;;;3.10;2.90;;;15.50;99.90;;;;;;5096149;28;20675;-77
2022/06/07 04:18:21;;;;;;;3.40;3.10;;;15.50;99.90;;;;;;5096441;28;20627;-77
2022/06/07 04:20:48;;;;;;;3.43;2.90;;;15.50;99.90;;;;;;5094639;28;20606;-78
2022/06/07 04:23:21;;;;;;;3.83;3.00;;;15.50;99.90;;;;;;5095744;28;20613;-77
2022/06/07 04:25:48;;;;;;;2.70;2.60;;;15.50;99.90;;;;;;5095456;28;20706;-77
2022/06/07 04:28:15;;;;;;;3.20;3.00;;;15.50;99.90;;;;;;5093978;28;20618;-77
2022/06/07 04:30:46;;;;;;;4.23;3.30;;;15.60;99.90;;;;;;5096379;28;20602;-77
2022/06/07 04:33:17;;;;;;;3.13;2.93;;;15.70;99.90;;;;;;5096065;28;20603;-77
2022/06/07 04:35:45;;;;;;;3.63;3.33;;;15.60;99.90;;;;;;5096323;28;20621;-78
2022/06/07 04:38:12;;;;;;;3.83;3.50;;;15.60;99.90;;;;;;5096054;28;20624;-77
2022/06/07 04:40:40;;;;;;;3.00;2.80;;;15.60;99.90;;;;;;5095603;28;20617;-77
2022/06/07 04:43:09;;;;;;;3.67;3.40;;;15.60;99.90;;;;;;5095543;28;20624;-77
2022/06/07 04:45:40;;;;;;;3.57;3.27;;;15.60;99.90;;;;;;5096096;28;20663;-77
2022/06/07 04:48:08;;;;;;;8.50;3.83;;;15.60;99.90;;;;;;5095596;28;20652;-77
2022/06/07 04:50:35;;;;;;;8.30;3.63;;;15.60;99.90;;;;;;5095810;28;20617;-77
2022/06/07 04:53:01;;;;;;;3.33;2.57;;;15.60;99.90;;;;;;5096279;28;20611;-77
2022/06/07 04:55:28;;;;;;;3.27;2.97;;;15.60;99.90;;;;;;5095681;28;20964;-77
2022/06/07 04:57:54;;;;;;;3.43;3.23;;;15.50;99.90;;;;;;5095118;28;20606;-77
2022/06/07 05:00:21;;;;;;;3.40;3.00;;;15.60;99.90;;;;;;5095477;28;21194;-77
2022/06/07 05:02:48;;;;;;;4.50;3.10;;;15.70;99.90;;;;;;5095283;28;20609;-77
2022/06/07 05:05:16;;;;;;;5.07;3.10;;;15.80;99.90;;;;;;5095530;28;20648;-77
2022/06/07 05:07:43;;;;;;;3.37;3.00;;;15.90;99.90;;;;;;5093405;28;20620;-77
2022/06/07 05:10:13;;;;;;;3.27;3.07;;;16.10;99.90;;;;;;5094878;28;20595;-77
2022/06/07 05:12:40;;;;;;;2.93;2.60;;;16.10;99.90;;;;;;5095470;28;20605;-77
2022/06/07 05:15:08;;;;;;;3.00;2.50;;;16.20;99.90;;;;;;5094928;28;20621;-78
2022/06/07 05:17:34;;;;;;;4.93;2.47;;;16.30;99.90;;;;;;5094938;28;20613;-77
2022/06/07 05:20:01;;;;;;;3.07;2.47;;;16.40;99.90;;;;;;5076711;28;20657;-77
2022/06/07 05:22:27;;;;;;;3.63;3.43;;;16.40;99.90;;;;;;5094671;28;20612;-77
2022/06/07 05:24:54;;;;;;;7.23;2.90;;;16.50;99.90;;;;;;5095276;28;21159;-77
2022/06/07 05:27:24;;;;;;;1.90;1.80;;;16.70;99.90;;;;;;5095578;28;20602;-77
2022/06/07 05:29:53;;;;;;;6.37;2.67;;;16.80;99.90;;;;;;5093437;28;20633;-77
2022/06/07 05:32:20;;;;;;;3.67;2.23;;;17.00;99.90;;;;;;5095400;28;20617;-77
2022/06/07 05:34:48;;;;;;;2.80;2.20;;;16.90;99.90;;;;;;5093898;28;21190;-77
2022/06/07 05:37:20;;;;;;;2.87;2.60;;;17.00;99.90;;;;;;5095166;28;21186;-77
2022/06/07 05:39:47;;;;;;;2.33;2.23;;;17.10;99.90;;;;;;5093698;28;21073;-77
2022/06/07 05:42:15;;;;;;;2.20;2.10;;;17.00;99.90;;;;;;5095169;28;20605;-77
2022/06/07 05:44:42;;;;;;;3.17;2.10;;;17.00;99.90;;;;;;5094934;28;21072;-78
2022/06/07 05:47:09;;;;;;;3.20;3.03;;;17.10;99.90;;;;;;5095587;28;20686;-77
2022/06/07 05:49:36;;;;;;;2.20;2.10;;;17.10;99.90;;;;;;5095210;28;20660;-77
2022/06/07 05:52:05;;;;;;;2.87;2.40;;;17.10;99.90;;;;;;5095124;28;21201;-77
2022/06/07 05:54:34;;;;;;;3.20;2.80;;;17.30;99.90;;;;;;5093045;28;20625;-77
2022/06/07 05:57:02;;;;;;;2.80;2.60;;;17.30;99.90;;;;;;5094513;28;20643;-77
2022/06/07 05:59:29;;;;;;;2.70;2.50;;;17.30;99.90;;;;;;5094478;28;20653;-74
2022/06/07 06:01:55;;;;;;;5.93;2.63;;;17.40;99.90;;;;;;5093359;28;20609;-75
2022/06/07 06:04:24;;;;;;;2.73;2.40;;;17.60;99.90;;;;;;5092912;28;20613;-77
2022/06/07 06:06:50;;;;;;;2.50;2.37;;;17.60;99.90;;;;;;5077113;28;20605;-78
2022/06/07 06:12:02;;;;;;;2.87;2.67;;;17.60;99.90;;;;;;5097783;28;20573;-77
2022/06/07 06:14:29;;;;;;;3.17;2.83;;;17.70;99.90;;;;;;5097608;28;20628;-74
2022/06/07 06:16:55;;;;;;;2.77;2.57;;;17.80;99.90;;;;;;5097151;28;20612;-74
2022/06/07 06:19:22;;;;;;;4.00;2.40;;;17.90;99.90;;;;;;5097893;28;20653;-77
2022/06/07 06:21:48;;;;;;;3.30;3.00;;;18.10;99.90;;;;;;5096253;28;20620;-76
2022/06/07 06:24:17;;;;;;;4.13;3.80;;;18.10;99.90;;;;;;5097596;28;20958;-77
2022/06/07 06:26:43;;;;;;;3.67;3.30;;;17.90;99.90;;;;;;5098633;28;21011;-78
2022/06/07 06:29:11;;;;;;;3.63;3.43;;;17.50;99.90;;;;;;5098815;28;20621;-77
2022/06/07 06:31:40;;;;;;;4.67;4.27;;;17.70;99.90;;;;;;5099083;28;20651;-78
2022/06/07 06:34:07;;;;;;;6.00;3.67;;;17.90;99.90;;;;;;5098426;28;20931;-76
2022/06/07 06:36:34;;;;;;;3.70;3.40;;;17.90;99.90;;;;;;5097900;28;20613;-77
2022/06/07 06:39:01;;;;;;;3.10;2.90;;;17.90;99.90;;;;;;5097196;28;21470;-76
2022/06/07 06:41:32;;;;;;;5.17;3.20;;;18.10;99.90;;;;;;5096542;28;20658;-76
2022/06/07 06:44:01;;;;;;;3.10;2.73;;;18.00;99.90;;;;;;5096015;28;21190;-75
2022/06/07 06:46:33;;;;;;;4.33;2.10;;;18.40;99.90;;;;;;5096296;28;20613;-76
2022/06/07 06:49:02;;;;;;;2.50;2.13;;;18.60;99.90;;;;;;5096592;28;20657;-76
2022/06/07 06:51:30;;;;;;;2.30;2.10;;;19.00;99.90;;;;;;5096716;28;20624;-75
2022/06/07 06:54:01;;;;;;;4.80;1.93;;;18.90;99.90;;;;;;5096681;28;20616;-76
2022/06/07 06:56:29;;;;;;;1.87;1.77;;;18.70;99.90;;;;;;5096180;28;20578;-75
2022/06/07 06:58:56;;;;;;;3.47;1.77;;;18.80;99.90;;;;;;5096970;28;20953;-74
2022/06/07 07:01:33;;;;;;;1.83;1.73;;;19.00;99.90;;;;;;5095724;28;21159;-74
2022/06/07 07:04:03;;;;;;;2.00;1.80;;;18.70;99.90;;;;;;5097831;28;20932;-75
2022/06/07 07:06:29;;;;;;;2.60;1.73;;;18.90;99.90;;;;;;5096985;28;20966;-74
2022/06/07 07:08:56;;;;;;;2.00;1.80;;;19.10;99.90;;;;;;5095217;28;20636;-77
2022/06/07 07:11:29;;;;;;;2.13;1.93;;;19.10;99.90;;;;;;5096788;28;20612;-76
2022/06/07 07:13:58;;;;;;;2.30;2.20;;;19.00;99.90;;;;;;5096571;28;20581;-76
2022/06/07 07:16:27;;;;;;;5.37;2.63;;;18.70;99.90;;;;;;5096495;28;20613;-75
2022/06/07 07:18:54;;;;;;;2.50;2.40;;;18.90;99.90;;;;;;5096531;28;20652;-75
2022/06/07 07:21:26;;;;;;;2.70;2.20;;;19.00;99.90;;;;;;5095583;28;20625;-75
2022/06/07 07:23:53;;;;;;;2.50;2.40;;;18.90;99.90;;;;;;5095944;28;20606;-75
2022/06/07 07:26:23;;;;;;;2.33;2.13;;;18.90;99.90;;;;;;5096099;28;20616;-76
2022/06/07 07:28:50;;;;;;;2.30;2.10;;;18.90;99.90;;;;;;5096441;28;20617;-76
2022/06/07 07:31:20;;;;;;;3.03;2.30;;;19.10;99.90;;;;;;5095189;28;21197;-76
2022/06/07 07:33:47;;;;;;;3.00;2.70;;;19.30;99.90;;;;;;5095926;28;20618;-76
2022/06/07 07:36:14;;;;;;;2.80;2.60;;;19.00;99.90;;;;;;5096138;28;20943;-76
2022/06/07 07:38:41;;;;;;;2.73;2.50;;;19.10;99.90;;;;;;5094833;28;20613;-76
2022/06/07 07:41:35;;;;;;;4.60;1.97;;;19.20;99.90;;;;;;5095968;28;20610;-74
2022/06/07 07:44:03;;;;;;;2.20;2.10;;;19.20;99.90;;;;;;5093221;28;20640;-75
2022/06/07 07:46:32;;;;;;;2.60;2.40;;;18.90;99.90;;;;;;5095430;28;20618;-75
2022/06/07 07:48:59;;;;;;;2.20;2.00;;;18.90;99.90;;;;;;5095080;28;20653;-75
2022/06/07 07:51:29;;;;;;;2.20;2.10;;;19.20;99.90;;;;;;5095874;28;20588;-75
2022/06/07 07:53:58;;;;;;;3.20;2.10;;;19.30;99.90;;;;;;5095226;28;20632;-76
2022/06/07 07:56:25;;;;;;;2.50;2.20;;;19.50;99.90;;;;;;5096478;28;20610;-75
2022/06/07 07:58:54;;;;;;;3.30;2.30;;;19.40;99.90;;;;;;5095889;28;20618;-75
2022/06/07 08:01:22;;;;;;;4.07;1.93;;;19.30;99.90;;;;;;5095696;28;21154;-75
2022/06/07 08:03:50;;;;;;;4.63;1.87;;;19.50;99.90;;;;;;5094223;28;21216;-75
2022/06/07 08:06:20;;;;;;;2.60;1.70;;;19.50;99.90;;;;;;5094640;28;20622;-76
2022/06/07 08:08:50;;;;;;;2.30;2.07;;;19.80;99.90;;;;;;5095017;28;21089;-75
2022/06/07 08:11:18;;;;;;;2.77;1.70;;;19.90;99.90;;;;;;5095157;28;20960;-74
2022/06/07 08:13:45;;;;;;;2.20;2.00;;;20.40;99.90;;;;;;5094706;28;21027;-74
2022/06/07 08:16:13;;;;;;;6.63;1.73;;;20.10;99.90;;;;;;5095414;28;20659;-74
2022/06/07 08:18:41;;;;;;;3.37;1.80;;;20.50;99.90;;;;;;5094709;28;20949;-74
2022/06/07 08:21:20;;;;;;;2.50;1.60;;;20.40;99.90;;;;;;5094370;28;20676;-74
2022/06/07 08:23:48;;;;;;;2.20;1.70;;;20.40;99.90;;;;;;5094895;28;20619;-75
2022/06/07 08:26:16;;;;;;;2.97;1.63;;;20.30;99.90;;;;;;5094872;28;20608;-74
2022/06/07 08:28:44;;;;;;;1.80;1.70;;;20.30;99.90;;;;;;5094878;28;20582;-74
2022/06/07 08:31:26;;;;;;;3.50;1.90;;;20.30;99.90;;;;;;5093876;28;20610;-74
2022/06/07 08:39:24;;;;;;;1.70;1.60;;;20.60;99.90;;;;;;5094629;28;20636;-74
2022/06/07 08:41:56;;;;;;;1.73;1.63;;;20.60;99.90;;;;;;5094247;28;20602;-74
2022/06/07 08:44:43;;;;;;;3.13;1.83;;;21.00;99.90;;;;;;5094541;28;20646;-74
2022/06/07 08:47:30;;;;;;;2.93;1.53;;;21.10;99.90;;;;;;5094647;28;20682;-74
2022/06/07 08:49:59;;;;;;;1.43;1.33;;;21.40;99.90;;;;;;5094105;28;20621;-77
2022/06/07 08:52:27;;;;;;;3.53;1.93;;;21.40;99.90;;;;;;5095059;28;20601;-75
2022/06/07 08:54:58;;;;;;;2.40;1.40;;;21.70;99.90;;;;;;5094460;28;20636;-76
2022/06/07 08:57:30;;;;;;;1.63;1.53;;;21.70;99.90;;;;;;5094323;28;20613;-74
2022/06/07 09:00:19;;;;;;;3.10;1.50;;;21.60;99.90;;;;;;5093762;28;20661;-75
2022/06/07 09:03:13;;;;;;;1.67;1.40;;;22.10;99.90;;;;;;5094019;28;21123;-75
2022/06/07 09:05:40;;;;;;;5.93;1.40;;;21.70;99.90;;;;;;5093460;28;20632;-75
2022/06/07 09:08:12;;;;;;;2.37;1.30;;;21.60;99.90;;;;;;5094761;28;20578;-75
2022/06/07 09:13:25;;;;;;;4.00;2.03;;;22.00;99.90;;;;;;5094467;28;20566;-75
2022/06/07 09:15:55;;;;;;;3.27;1.30;;;22.30;99.90;;;;;;5094575;28;20597;-76
2022/06/07 09:18:28;;;;;;;2.13;1.97;;;22.00;99.90;;;;;;5094376;28;20681;-75
2022/06/07 09:20:59;;;;;;;3.13;1.87;;;21.40;99.90;;;;;;5094287;28;21001;-76
2022/06/07 09:23:39;;;;;;;3.57;1.67;;;21.10;99.90;;;;;;5094103;28;20971;-76
2022/06/07 09:26:40;;;;;;;2.40;1.20;;;21.10;99.90;;;;;;5094695;28;20927;-76
2022/06/07 09:29:18;;;;;;;2.37;1.27;;;21.20;99.90;;;;;;5093850;28;21051;-73
2022/06/07 09:31:46;;;;;;;1.40;1.23;;;20.90;99.90;;;;;;5093799;28;20620;-73
2022/06/07 09:34:31;;;;;;;2.23;1.27;;;20.70;99.90;;;;;;5092760;28;20623;-74
2022/06/07 09:37:03;;;;;;;2.03;1.30;;;21.00;99.90;;;;;;5094092;28;20566;-74
2022/06/07 09:39:37;;;;;;;2.00;1.33;;;21.50;99.90;;;;;;5093745;28;20987;-73
2022/06/07 09:42:27;;;;;;;3.00;1.60;;;21.50;99.90;;;;;;5094080;28;20573;-73
2022/06/07 09:44:59;;;;;;;1.50;1.40;;;22.00;99.90;;;;;;5097514;28;20966;-73
2022/06/07 09:47:27;;;;;;;1.67;1.50;;;21.80;99.90;;;;;;5096263;28;20997;-72
2022/06/07 09:50:05;;;;;;;2.80;1.70;;;21.80;99.90;;;;;;5098141;28;20576;-75
2022/06/07 09:52:44;;;;;;;1.63;1.30;;;21.40;99.90;;;;;;5097753;28;20572;-75
2022/06/07 09:55:16;;;;;;;1.60;1.50;;;21.70;99.90;;;;;;5095770;28;20632;-75
2022/06/07 09:58:05;;;;;;;2.60;1.60;;;21.90;99.90;;;;;;5097499;28;20613;-75
2022/06/07 10:00:59;;;;;;;2.37;2.17;;;21.80;99.90;;;;;;5098031;28;20629;-74
2022/06/07 10:03:45;;;;;;;2.30;1.40;;;22.00;99.90;;;;;;5093810;28;20621;-75
2022/06/07 10:06:29;;;;;;;1.60;1.50;;;22.10;99.90;;;;;;5097256;28;20613;-75
2022/06/07 10:09:24;;;;;;;1.40;1.30;;;22.50;99.90;;;;;;5097088;28;20573;-76
2022/06/07 10:11:56;;;;;;;1.70;1.60;;;22.10;99.90;;;;;;5096550;28;21026;-74
2022/06/07 10:14:49;;;;;;;1.53;1.43;;;21.80;99.90;;;;;;5097490;28;20601;-75
2022/06/07 10:17:29;;;;;;;2.07;1.50;;;21.60;99.90;;;;;;5097758;28;20580;-74
2022/06/07 10:20:22;;;;;;;1.50;1.40;;;21.70;99.90;;;;;;5097838;28;20624;-74
2022/06/07 10:23:09;;;;;;;1.47;1.37;;;21.70;99.90;;;;;;5097435;28;20626;-75
2022/06/07 10:25:35;;;;;;;1.90;1.80;;;22.30;99.90;;;;;;5097947;28;20582;-74
2022/06/07 10:28:12;;;;;;;2.10;1.47;;;22.60;99.90;;;;;;5097454;28;20704;-75
2022/06/07 10:30:51;;;;;;;4.10;1.50;;;22.30;99.90;;;;;;5096741;28;20632;-75
2022/06/07 10:33:36;;;;;;;1.60;1.50;;;22.40;99.90;;;;;;5097347;28;20573;-75
2022/06/07 10:36:03;;;;;;;1.70;1.60;;;22.00;99.90;;;;;;5097400;28;20605;-75
2022/06/07 10:38:44;;;;;;;4.10;1.63;;;22.20;99.90;;;;;;5097146;28;20624;-75
2022/06/07 10:41:49;;;;;;;7.83;1.50;;;21.80;99.90;;;;;;5095093;28;20652;-74
2022/06/07 10:44:38;;;;;;;1.90;1.40;;;21.70;99.90;;;;;;5096794;28;21023;-75
2022/06/07 10:47:28;;;;;;;1.87;1.50;;;22.10;99.90;;;;;;5087419;28;20656;-77
2022/06/07 10:50:00;;;;;;;2.17;1.37;;;22.40;99.90;;;;;;5096327;28;20581;-76
2022/06/07 10:52:44;;;;;;;1.50;1.40;;;22.70;99.90;;;;;;5096142;28;20588;-75
2022/06/07 10:55:25;;;;;;;1.90;1.70;;;22.60;99.90;;;;;;5095252;28;20689;-74
2022/06/07 10:58:08;;;;;;;2.53;1.70;;;22.90;99.90;;;;;;5097262;28;21091;-74
2022/06/07 11:00:43;;;;;;;6.10;1.50;;;23.40;99.90;;;;;;5097045;28;20628;-75
2022/06/07 11:03:49;;;;;;;1.90;1.80;;;22.60;99.90;;;;;;5095932;28;21253;-74
2022/06/07 11:09:47;;;;;;;1.83;1.73;;;22.70;99.90;;;;;;5096357;28;20561;-73
2022/06/07 11:12:32;;;;;;;1.60;1.50;;;23.00;99.90;;;;;;5096094;28;20957;-73
2022/06/07 11:15:14;;;;;;;2.03;1.50;;;22.40;99.90;;;;;;5096136;28;20589;-74
2022/06/07 11:17:59;;;;;;;2.40;1.50;;;23.00;99.90;;;;;;5095153;28;20629;-75
2022/06/07 11:20:30;;;;;;;1.30;1.30;;;23.30;99.90;;;;;;5096392;28;20629;-75
2022/06/07 11:23:13;;;;;;;2.70;1.53;;;23.70;99.90;;;;;;5095997;28;20605;-74
2022/06/07 11:26:00;;;;;;;1.43;1.43;;;23.30;99.90;;;;;;5097065;28;20574;-75
2022/06/07 11:28:40;;;;;;;1.30;1.20;;;23.50;99.90;;;;;;5096468;28;21148;-76
2022/06/07 11:31:33;;;;;;;1.50;1.40;;;23.30;99.90;;;;;;5097278;28;20573;-76
2022/06/07 11:34:10;;;;;;;2.33;1.90;;;23.50;99.90;;;;;;5096804;28;20570;-74
2022/06/07 11:36:41;;;;;;;1.50;1.40;;;23.50;99.90;;;;;;5096066;28;20620;-76
2022/06/07 11:39:29;;;;;;;1.53;1.23;;;23.00;99.90;;;;;;5095273;28;20609;-75
2022/06/07 11:41:57;;;;;;;1.40;1.30;;;23.50;99.90;;;;;;5095856;28;20577;-75
2022/06/07 11:44:35;;;;;;;1.80;1.50;;;23.70;99.90;;;;;;5095857;28;20601;-75
2022/06/07 11:47:07;;;;;;;1.97;1.60;;;23.10;99.90;;;;;;5095209;28;20636;-73
2022/06/07 11:49:44;;;;;;;3.93;1.80;;;22.40;99.90;;;;;;5095723;28;20652;-74
2022/06/07 11:52:13;;;;;;;1.63;1.43;;;22.10;99.90;;;;;;5095711;28;21067;-73
2022/06/07 11:54:45;;;;;;;2.23;1.50;;;22.90;99.90;;;;;;5095728;28;20963;-77
2022/06/07 11:57:35;;;;;;;3.43;1.40;;;23.20;99.90;;;;;;5096968;28;20606;-76
2022/06/07 12:00:16;;;;;;;3.37;1.70;;;23.90;99.90;;;;;;5089961;28;20657;-76
2022/06/07 12:03:08;;;;;;;1.60;1.50;;;24.00;99.90;;;;;;5096324;28;20614;-76
2022/06/07 12:05:52;;;;;;;3.90;1.60;;;23.80;99.90;;;;;;5095832;28;20979;-75
2022/06/07 12:08:43;;;;;;;1.70;1.60;;;24.40;99.90;;;;;;5096558;28;20578;-76
2022/06/07 12:11:42;;;;;;;2.13;1.77;;;24.50;99.90;;;;;;5095050;28;21224;-77
2022/06/07 12:14:24;;;;;;;2.13;1.67;;;24.70;99.90;;;;;;5093243;28;20851;-76
2022/06/07 12:17:03;;;;;;;4.97;2.17;;;24.30;99.90;;;;;;5096410;28;20646;-77
2022/06/07 12:19:32;;;;;;;2.70;1.63;;;25.10;99.90;;;;;;5096096;28;20577;-76
2022/06/07 12:22:05;;;;;;;4.60;2.43;;;25.20;99.90;;;;;;5095614;28;20624;-76
2022/06/07 12:24:43;;;;;;;2.47;2.33;;;25.70;99.90;;;;;;5096400;28;20620;-77
2022/06/07 12:27:47;;;;;;;3.30;1.60;;;24.70;99.90;;;;;;5096170;28;20597;-77
2022/06/07 12:30:25;;;;;;;1.70;1.60;;;25.20;99.90;;;;;;5097958;28;20676;-76
2022/06/07 12:32:54;;;;;;;1.30;1.30;;;25.30;99.90;;;;;;5095273;28;21146;-76
2022/06/07 12:35:26;;;;;;;1.43;1.33;;;24.40;99.90;;;;;;5096510;28;20629;-76
2022/06/07 12:38:01;;;;;;;1.50;1.40;;;24.80;99.90;;;;;;5096814;28;20650;-76
2022/06/07 12:40:52;;;;;;;1.50;1.40;;;23.70;99.90;;;;;;5095980;28;20625;-77
2022/06/07 12:43:28;;;;;;;1.50;1.40;;;24.50;99.90;;;;;;5095822;28;20572;-78
2022/06/07 12:46:17;;;;;;;1.70;1.60;;;25.10;99.90;;;;;;5095458;28;20684;-77
2022/06/07 12:48:43;;;;;;;1.50;1.40;;;26.10;99.90;;;;;;5094688;28;21015;-77
2022/06/07 12:51:42;;;;;;;1.40;1.40;;;26.00;99.90;;;;;;5095640;28;20609;-77
2022/06/07 12:54:17;;;;;;;2.40;1.57;;;26.00;99.90;;;;;;5072491;28;20644;-76
2022/06/07 12:56:46;;;;;;;3.07;1.87;;;25.60;99.90;;;;;;5095564;28;20620;-77
2022/06/07 12:59:22;;;;;;;1.77;1.63;;;25.80;99.90;;;;;;5095919;28;20701;-77
2022/06/07 13:01:51;;;;;;;1.50;1.50;;;26.20;99.90;;;;;;5095454;28;20674;-77
2022/06/07 13:04:24;;;;;;;1.70;1.60;;;25.40;99.90;;;;;;5094119;28;20622;-77
2022/06/07 13:07:13;;;;;;;1.73;1.63;;;25.50;99.90;;;;;;5094541;28;20574;-77
2022/06/07 13:09:40;;;;;;;1.60;1.50;;;26.40;99.90;;;;;;5095528;28;20570;-77
2022/06/07 13:12:08;;;;;;;1.80;1.70;;;26.40;99.90;;;;;;5094867;28;20609;-77
2022/06/07 13:14:35;;;;;;;4.30;1.73;;;25.40;99.90;;;;;;5094775;28;20611;-77
2022/06/07 13:17:15;;;;;;;1.70;1.60;;;26.10;99.90;;;;;;5094423;28;20617;-77
2022/06/07 13:19:45;;;;;;;2.60;1.67;;;27.60;99.90;;;;;;5094084;28;21281;-74
2022/06/07 13:22:17;;;;;;;1.90;1.80;;;27.70;99.90;;;;;;5094027;28;20613;-74
2022/06/07 13:24:51;;;;;;;2.40;1.80;;;27.80;99.90;;;;;;5094977;28;20635;-73
2022/06/07 13:27:44;;;;;;;2.33;2.20;;;27.60;99.90;;;;;;5094490;28;20561;-73
2022/06/07 13:30:15;;;;;;;2.23;2.00;;;27.50;99.90;;;;;;5094371;28;20614;-73
2022/06/07 13:32:42;;;;;;;2.83;2.10;;;27.30;99.90;;;;;;5093905;28;21167;-75